sensor_id;sensor_type;location;lat;lon;timestamp;P1;durP1;ratioP1;P2;durP2;ratioP2
64061;SDS011;50308;47.438;-1.528;2022-09-02T00:01:45;13.00;;;7.13;;
64061;SDS011;50308;47.438;-1.528;2022-09-02T00:04:17;10.68;;;6.13;;
64061;SDS011;50308;47.438;-1.528;2022-09-02T00:06:51;8.07;;;6.10;;
64061;SDS011;50308;47.438;-1.528;2022-09-02T00:09:22;10.15;;;5.78;;
64061;SDS011;50308;47.438;-1.528;2022-09-02T00:12:08;8.25;;;5.72;;
64061;SDS011;50308;47.438;-1.528;2022-09-02T00:14:46;11.30;;;6.57;;
64061;SDS011;50308;47.438;-1.528;2022-09-02T00:17:12;13.90;;;6.63;;
64061;SDS011;50308;47.438;-1.528;2022-09-02T00:19:38;11.05;;;6.68;;
64061;SDS011;50308;47.438;-1.528;2022-09-02T00:22:04;13.55;;;6.57;;
64061;SDS011;50308;47.438;-1.528;2022-09-02T00:24:30;10.25;;;6.18;;
64061;SDS011;50308;47.438;-1.528;2022-09-02T00:27:06;10.30;;;6.57;;
64061;SDS011;50308;47.438;-1.528;2022-09-02T00:29:40;10.68;;;6.60;;
64061;SDS011;50308;47.438;-1.528;2022-09-02T00:32:10;12.93;;;7.32;;
64061;SDS011;50308;47.438;-1.528;2022-09-02T00:34:36;12.13;;;6.15;;
64061;SDS011;50308;47.438;-1.528;2022-09-02T00:37:02;13.57;;;6.10;;
64061;SDS011;50308;47.438;-1.528;2022-09-02T00:39:28;11.05;;;6.63;;
64061;SDS011;50308;47.438;-1.528;2022-09-02T00:41:54;9.88;;;6.63;;
64061;SDS011;50308;47.438;-1.528;2022-09-02T00:44:20;11.38;;;6.88;;
64061;SDS011;50308;47.438;-1.528;2022-09-02T00:46:48;12.73;;;7.35;;
64061;SDS011;50308;47.438;-1.528;2022-09-02T00:54:40;12.77;;;6.88;;
64061;SDS011;50308;47.438;-1.528;2022-09-02T00:57:12;10.32;;;6.80;;
64061;SDS011;50308;47.438;-1.528;2022-09-02T01:02:39;11.82;;;7.25;;
64061;SDS011;50308;47.438;-1.528;2022-09-02T01:05:07;11.23;;;6.88;;
64061;SDS011;50308;47.438;-1.528;2022-09-02T01:07:36;11.52;;;7.07;;
64061;SDS011;50308;47.438;-1.528;2022-09-02T01:10:15;10.18;;;6.90;;
64061;SDS011;50308;47.438;-1.528;2022-09-02T01:12:58;12.35;;;7.45;;
64061;SDS011;50308;47.438;-1.528;2022-09-02T01:15:39;14.10;;;7.45;;
64061;SDS011;50308;47.438;-1.528;2022-09-02T01:18:18;11.27;;;7.63;;
64061;SDS011;50308;47.438;-1.528;2022-09-02T01:20:53;14.85;;;7.45;;
64061;SDS011;50308;47.438;-1.528;2022-09-02T01:23:21;14.65;;;7.03;;
64061;SDS011;50308;47.438;-1.528;2022-09-02T01:25:50;11.25;;;7.28;;
64061;SDS011;50308;47.438;-1.528;2022-09-02T01:28:23;13.23;;;7.35;;
64061;SDS011;50308;47.438;-1.528;2022-09-02T01:31:09;16.80;;;6.90;;
64061;SDS011;50308;47.438;-1.528;2022-09-02T01:33:47;12.48;;;7.72;;
64061;SDS011;50308;47.438;-1.528;2022-09-02T01:36:15;12.30;;;7.05;;
64061;SDS011;50308;47.438;-1.528;2022-09-02T01:38:51;11.23;;;7.65;;
64061;SDS011;50308;47.438;-1.528;2022-09-02T01:41:22;12.77;;;8.38;;
64061;SDS011;50308;47.438;-1.528;2022-09-02T01:44:01;11.55;;;7.20;;
64061;SDS011;50308;47.438;-1.528;2022-09-02T01:46:30;16.30;;;7.75;;
64061;SDS011;50308;47.438;-1.528;2022-09-02T01:51:31;13.60;;;8.30;;
64061;SDS011;50308;47.438;-1.528;2022-09-02T01:54:02;11.40;;;6.97;;
64061;SDS011;50308;47.438;-1.528;2022-09-02T01:56:36;11.98;;;7.85;;
64061;SDS011;50308;47.438;-1.528;2022-09-02T01:59:07;12.63;;;7.43;;
64061;SDS011;50308;47.438;-1.528;2022-09-02T02:01:36;11.23;;;7.07;;
64061;SDS011;50308;47.438;-1.528;2022-09-02T02:04:15;13.18;;;8.52;;
64061;SDS011;50308;47.438;-1.528;2022-09-02T02:06:52;12.50;;;8.13;;
64061;SDS011;50308;47.438;-1.528;2022-09-02T02:09:26;13.32;;;7.07;;
64061;SDS011;50308;47.438;-1.528;2022-09-02T02:11:57;13.65;;;7.55;;
64061;SDS011;50308;47.438;-1.528;2022-09-02T02:14:24;13.63;;;8.02;;
64061;SDS011;50308;47.438;-1.528;2022-09-02T02:16:55;11.75;;;7.28;;
64061;SDS011;50308;47.438;-1.528;2022-09-02T02:19:26;14.43;;;7.60;;
64061;SDS011;50308;47.438;-1.528;2022-09-02T02:21:54;11.55;;;7.90;;
64061;SDS011;50308;47.438;-1.528;2022-09-02T02:24:34;13.27;;;7.68;;
64061;SDS011;50308;47.438;-1.528;2022-09-02T02:27:10;13.55;;;8.25;;
64061;SDS011;50308;47.438;-1.528;2022-09-02T02:29:38;15.23;;;7.95;;
64061;SDS011;50308;47.438;-1.528;2022-09-02T02:32:19;13.35;;;8.52;;
64061;SDS011;50308;47.438;-1.528;2022-09-02T02:34:57;13.68;;;8.10;;
64061;SDS011;50308;47.438;-1.528;2022-09-02T02:37:24;15.75;;;7.95;;
64061;SDS011;50308;47.438;-1.528;2022-09-02T02:40:17;15.90;;;8.15;;
64061;SDS011;50308;47.438;-1.528;2022-09-02T02:42:46;19.60;;;7.82;;
64061;SDS011;50308;47.438;-1.528;2022-09-02T02:45:23;13.93;;;7.82;;
64061;SDS011;50308;47.438;-1.528;2022-09-02T02:48:12;14.10;;;7.40;;
64061;SDS011;50308;47.438;-1.528;2022-09-02T02:50:44;13.90;;;7.90;;
64061;SDS011;50308;47.438;-1.528;2022-09-02T02:53:21;9.77;;;7.45;;
64061;SDS011;50308;47.438;-1.528;2022-09-02T02:55:51;19.58;;;8.32;;
64061;SDS011;50308;47.438;-1.528;2022-09-02T02:58:18;11.87;;;7.87;;
64061;SDS011;50308;47.438;-1.528;2022-09-02T03:00:50;12.57;;;7.95;;
64061;SDS011;50308;47.438;-1.528;2022-09-02T03:03:18;12.93;;;8.57;;
64061;SDS011;50308;47.438;-1.528;2022-09-02T03:05:48;12.85;;;7.43;;
64061;SDS011;50308;47.438;-1.528;2022-09-02T03:08:20;14.32;;;8.40;;
64061;SDS011;50308;47.438;-1.528;2022-09-02T03:10:58;13.82;;;8.10;;
64061;SDS011;50308;47.438;-1.528;2022-09-02T03:13:42;15.18;;;7.97;;
64061;SDS011;50308;47.438;-1.528;2022-09-02T03:16:17;13.32;;;7.32;;
64061;SDS011;50308;47.438;-1.528;2022-09-02T03:21:17;10.68;;;7.15;;
64061;SDS011;50308;47.438;-1.528;2022-09-02T03:24:02;13.13;;;7.72;;
64061;SDS011;50308;47.438;-1.528;2022-09-02T03:26:30;12.55;;;7.35;;
64061;SDS011;50308;47.438;-1.528;2022-09-02T03:29:01;9.63;;;7.30;;
64061;SDS011;50308;47.438;-1.528;2022-09-02T03:31:31;12.10;;;7.75;;
64061;SDS011;50308;47.438;-1.528;2022-09-02T03:34:06;11.75;;;7.75;;
64061;SDS011;50308;47.438;-1.528;2022-09-02T03:36:36;12.43;;;7.22;;
64061;SDS011;50308;47.438;-1.528;2022-09-02T03:39:19;11.25;;;6.80;;
64061;SDS011;50308;47.438;-1.528;2022-09-02T03:41:49;11.85;;;7.70;;
64061;SDS011;50308;47.438;-1.528;2022-09-02T03:44:16;11.50;;;8.13;;
64061;SDS011;50308;47.438;-1.528;2022-09-02T03:47:00;12.95;;;7.75;;
64061;SDS011;50308;47.438;-1.528;2022-09-02T03:49:41;11.48;;;7.28;;
64061;SDS011;50308;47.438;-1.528;2022-09-02T03:52:24;12.32;;;8.18;;
64061;SDS011;50308;47.438;-1.528;2022-09-02T03:54:57;16.20;;;8.90;;
64061;SDS011;50308;47.438;-1.528;2022-09-02T03:57:23;11.88;;;7.53;;
64061;SDS011;50308;47.438;-1.528;2022-09-02T04:02:24;12.88;;;7.72;;
64061;SDS011;50308;47.438;-1.528;2022-09-02T04:04:57;12.38;;;8.00;;
64061;SDS011;50308;47.438;-1.528;2022-09-02T04:07:33;15.23;;;7.93;;
64061;SDS011;50308;47.438;-1.528;2022-09-02T04:10:01;13.93;;;7.82;;
64061;SDS011;50308;47.438;-1.528;2022-09-02T04:12:34;10.55;;;7.45;;
64061;SDS011;50308;47.438;-1.528;2022-09-02T04:15:13;14.57;;;8.07;;
64061;SDS011;50308;47.438;-1.528;2022-09-02T04:17:47;11.43;;;7.75;;
64061;SDS011;50308;47.438;-1.528;2022-09-02T04:20:24;12.10;;;7.10;;
64061;SDS011;50308;47.438;-1.528;2022-09-02T04:22:55;13.35;;;7.72;;
64061;SDS011;50308;47.438;-1.528;2022-09-02T04:25:27;11.82;;;7.80;;
64061;SDS011;50308;47.438;-1.528;2022-09-02T04:27:53;11.15;;;7.55;;
64061;SDS011;50308;47.438;-1.528;2022-09-02T04:30:18;11.68;;;8.10;;
64061;SDS011;50308;47.438;-1.528;2022-09-02T04:32:45;11.98;;;7.90;;
64061;SDS011;50308;47.438;-1.528;2022-09-02T04:35:11;14.88;;;7.93;;
64061;SDS011;50308;47.438;-1.528;2022-09-02T04:37:40;12.38;;;8.55;;
64061;SDS011;50308;47.438;-1.528;2022-09-02T04:40:31;13.15;;;8.05;;
64061;SDS011;50308;47.438;-1.528;2022-09-02T04:43:01;10.45;;;7.40;;
64061;SDS011;50308;47.438;-1.528;2022-09-02T04:45:31;15.60;;;8.00;;
64061;SDS011;50308;47.438;-1.528;2022-09-02T04:48:12;12.52;;;8.45;;
64061;SDS011;50308;47.438;-1.528;2022-09-02T04:50:47;11.10;;;8.15;;
64061;SDS011;50308;47.438;-1.528;2022-09-02T04:53:15;14.82;;;7.45;;
64061;SDS011;50308;47.438;-1.528;2022-09-02T04:55:49;15.00;;;7.93;;
64061;SDS011;50308;47.438;-1.528;2022-09-02T04:58:45;15.82;;;8.43;;
64061;SDS011;50308;47.438;-1.528;2022-09-02T05:01:21;11.85;;;7.93;;
64061;SDS011;50308;47.438;-1.528;2022-09-02T05:03:57;14.40;;;7.70;;
64061;SDS011;50308;47.438;-1.528;2022-09-02T05:06:25;11.73;;;8.02;;
64061;SDS011;50308;47.438;-1.528;2022-09-02T05:09:04;12.50;;;7.85;;
64061;SDS011;50308;47.438;-1.528;2022-09-02T05:11:41;10.23;;;7.70;;
64061;SDS011;50308;47.438;-1.528;2022-09-02T05:14:16;12.52;;;7.97;;
64061;SDS011;50308;47.438;-1.528;2022-09-02T05:16:51;13.88;;;8.18;;
64061;SDS011;50308;47.438;-1.528;2022-09-02T05:19:22;13.23;;;8.27;;
64061;SDS011;50308;47.438;-1.528;2022-09-02T05:22:07;10.65;;;8.00;;
64061;SDS011;50308;47.438;-1.528;2022-09-02T05:24:54;14.57;;;8.18;;
64061;SDS011;50308;47.438;-1.528;2022-09-02T05:27:28;13.82;;;8.30;;
64061;SDS011;50308;47.438;-1.528;2022-09-02T05:30:04;11.73;;;8.43;;
64061;SDS011;50308;47.438;-1.528;2022-09-02T05:32:32;14.77;;;8.48;;
64061;SDS011;50308;47.438;-1.528;2022-09-02T05:35:00;13.18;;;8.68;;
64061;SDS011;50308;47.438;-1.528;2022-09-02T05:37:39;13.05;;;8.98;;
64061;SDS011;50308;47.438;-1.528;2022-09-02T05:40:09;16.02;;;8.68;;
64061;SDS011;50308;47.438;-1.528;2022-09-02T05:42:42;15.57;;;7.97;;
64061;SDS011;50308;47.438;-1.528;2022-09-02T05:45:15;12.63;;;7.93;;
64061;SDS011;50308;47.438;-1.528;2022-09-02T05:47:52;10.48;;;8.07;;
64061;SDS011;50308;47.438;-1.528;2022-09-02T05:50:48;13.52;;;8.57;;
64061;SDS011;50308;47.438;-1.528;2022-09-02T05:53:22;16.90;;;8.30;;
64061;SDS011;50308;47.438;-1.528;2022-09-02T05:55:54;13.68;;;8.05;;
64061;SDS011;50308;47.438;-1.528;2022-09-02T05:58:31;11.02;;;8.35;;
64061;SDS011;50308;47.438;-1.528;2022-09-02T06:01:14;12.55;;;8.07;;
64061;SDS011;50308;47.438;-1.528;2022-09-02T06:03:49;16.52;;;9.57;;
64061;SDS011;50308;47.438;-1.528;2022-09-02T06:09:06;14.77;;;9.55;;
64061;SDS011;50308;47.438;-1.528;2022-09-02T06:11:39;13.07;;;8.10;;
64061;SDS011;50308;47.438;-1.528;2022-09-02T06:14:28;15.95;;;8.90;;
64061;SDS011;50308;47.438;-1.528;2022-09-02T06:16:56;15.70;;;9.15;;
64061;SDS011;50308;47.438;-1.528;2022-09-02T06:19:37;16.25;;;9.48;;
64061;SDS011;50308;47.438;-1.528;2022-09-02T06:22:22;12.35;;;7.80;;
64061;SDS011;50308;47.438;-1.528;2022-09-02T06:24:59;14.27;;;7.78;;
64061;SDS011;50308;47.438;-1.528;2022-09-02T06:27:40;12.65;;;8.85;;
64061;SDS011;50308;47.438;-1.528;2022-09-02T06:30:11;14.30;;;8.88;;
64061;SDS011;50308;47.438;-1.528;2022-09-02T06:32:49;14.35;;;8.40;;
64061;SDS011;50308;47.438;-1.528;2022-09-02T06:35:22;12.48;;;8.65;;
64061;SDS011;50308;47.438;-1.528;2022-09-02T06:37:50;13.85;;;8.75;;
64061;SDS011;50308;47.438;-1.528;2022-09-02T06:40:17;16.27;;;9.15;;
64061;SDS011;50308;47.438;-1.528;2022-09-02T06:42:51;14.70;;;8.73;;
64061;SDS011;50308;47.438;-1.528;2022-09-02T06:45:19;15.85;;;8.80;;
64061;SDS011;50308;47.438;-1.528;2022-09-02T06:50:21;13.32;;;9.77;;
64061;SDS011;50308;47.438;-1.528;2022-09-02T06:52:57;13.95;;;9.27;;
64061;SDS011;50308;47.438;-1.528;2022-09-02T06:55:38;15.75;;;10.38;;
64061;SDS011;50308;47.438;-1.528;2022-09-02T06:58:30;19.10;;;10.40;;
64061;SDS011;50308;47.438;-1.528;2022-09-02T07:01:03;17.52;;;10.18;;
64061;SDS011;50308;47.438;-1.528;2022-09-02T07:03:29;16.15;;;10.70;;
64061;SDS011;50308;47.438;-1.528;2022-09-02T07:06:13;17.73;;;10.95;;
64061;SDS011;50308;47.438;-1.528;2022-09-02T07:08:40;16.63;;;10.05;;
64061;SDS011;50308;47.438;-1.528;2022-09-02T07:11:14;20.55;;;11.45;;
64061;SDS011;50308;47.438;-1.528;2022-09-02T07:13:47;19.67;;;11.75;;
64061;SDS011;50308;47.438;-1.528;2022-09-02T07:16:15;18.45;;;11.18;;
64061;SDS011;50308;47.438;-1.528;2022-09-02T07:18:42;20.70;;;11.50;;
64061;SDS011;50308;47.438;-1.528;2022-09-02T07:21:18;19.50;;;11.27;;
64061;SDS011;50308;47.438;-1.528;2022-09-02T07:23:43;19.52;;;11.82;;
64061;SDS011;50308;47.438;-1.528;2022-09-02T07:26:10;20.83;;;12.07;;
64061;SDS011;50308;47.438;-1.528;2022-09-02T07:28:37;20.33;;;12.55;;
64061;SDS011;50308;47.438;-1.528;2022-09-02T07:31:06;19.98;;;12.13;;
64061;SDS011;50308;47.438;-1.528;2022-09-02T07:33:33;22.20;;;12.00;;
64061;SDS011;50308;47.438;-1.528;2022-09-02T07:36:01;19.85;;;11.90;;
64061;SDS011;50308;47.438;-1.528;2022-09-02T07:38:31;19.52;;;11.38;;
64061;SDS011;50308;47.438;-1.528;2022-09-02T07:40:58;21.63;;;12.05;;
64061;SDS011;50308;47.438;-1.528;2022-09-02T07:43:25;16.88;;;10.98;;
64061;SDS011;50308;47.438;-1.528;2022-09-02T07:45:51;19.80;;;11.40;;
64061;SDS011;50308;47.438;-1.528;2022-09-02T07:48:23;18.48;;;11.52;;
64061;SDS011;50308;47.438;-1.528;2022-09-02T07:50:49;18.08;;;10.32;;
64061;SDS011;50308;47.438;-1.528;2022-09-02T07:53:17;19.77;;;10.95;;
64061;SDS011;50308;47.438;-1.528;2022-09-02T07:55:43;22.85;;;12.32;;
64061;SDS011;50308;47.438;-1.528;2022-09-02T07:58:10;19.77;;;11.32;;
64061;SDS011;50308;47.438;-1.528;2022-09-02T08:00:40;22.25;;;12.80;;
64061;SDS011;50308;47.438;-1.528;2022-09-02T08:03:14;18.73;;;10.90;;
64061;SDS011;50308;47.438;-1.528;2022-09-02T08:05:41;20.50;;;11.70;;
64061;SDS011;50308;47.438;-1.528;2022-09-02T08:08:27;22.02;;;11.48;;
64061;SDS011;50308;47.438;-1.528;2022-09-02T08:10:54;20.38;;;11.45;;
64061;SDS011;50308;47.438;-1.528;2022-09-02T08:13:24;16.27;;;11.13;;
64061;SDS011;50308;47.438;-1.528;2022-09-02T08:15:50;19.13;;;11.20;;
64061;SDS011;50308;47.438;-1.528;2022-09-02T08:18:17;22.80;;;10.68;;
64061;SDS011;50308;47.438;-1.528;2022-09-02T08:20:43;24.05;;;11.13;;
64061;SDS011;50308;47.438;-1.528;2022-09-02T08:23:09;18.10;;;9.70;;
64061;SDS011;50308;47.438;-1.528;2022-09-02T08:25:36;19.08;;;9.55;;
64061;SDS011;50308;47.438;-1.528;2022-09-02T08:28:02;17.25;;;10.25;;
64061;SDS011;50308;47.438;-1.528;2022-09-02T08:30:28;15.77;;;9.52;;
64061;SDS011;50308;47.438;-1.528;2022-09-02T08:32:54;15.18;;;8.07;;
64061;SDS011;50308;47.438;-1.528;2022-09-02T08:35:20;17.10;;;8.23;;
64061;SDS011;50308;47.438;-1.528;2022-09-02T08:37:46;12.90;;;7.75;;
64061;SDS011;50308;47.438;-1.528;2022-09-02T08:40:22;12.38;;;6.20;;
64061;SDS011;50308;47.438;-1.528;2022-09-02T08:42:55;13.75;;;7.30;;
64061;SDS011;50308;47.438;-1.528;2022-09-02T08:45:37;9.82;;;6.20;;
64061;SDS011;50308;47.438;-1.528;2022-09-02T08:48:18;10.73;;;4.90;;
64061;SDS011;50308;47.438;-1.528;2022-09-02T08:50:51;8.18;;;5.60;;
64061;SDS011;50308;47.438;-1.528;2022-09-02T08:53:34;9.57;;;5.75;;
64061;SDS011;50308;47.438;-1.528;2022-09-02T08:56:04;9.40;;;6.68;;
64061;SDS011;50308;47.438;-1.528;2022-09-02T08:58:37;9.07;;;5.93;;
64061;SDS011;50308;47.438;-1.528;2022-09-02T09:04:05;8.20;;;4.50;;
64061;SDS011;50308;47.438;-1.528;2022-09-02T09:06:58;5.47;;;4.28;;
64061;SDS011;50308;47.438;-1.528;2022-09-02T09:17:44;7.80;;;4.85;;
64061;SDS011;50308;47.438;-1.528;2022-09-02T09:20:19;7.90;;;5.47;;
64061;SDS011;50308;47.438;-1.528;2022-09-02T09:22:47;8.00;;;4.63;;
64061;SDS011;50308;47.438;-1.528;2022-09-02T09:25:15;7.03;;;4.97;;
64061;SDS011;50308;47.438;-1.528;2022-09-02T09:27:42;8.63;;;4.30;;
64061;SDS011;50308;47.438;-1.528;2022-09-02T09:30:12;6.63;;;4.18;;
64061;SDS011;50308;47.438;-1.528;2022-09-02T09:35:11;6.38;;;4.28;;
64061;SDS011;50308;47.438;-1.528;2022-09-02T09:42:42;5.88;;;3.60;;
64061;SDS011;50308;47.438;-1.528;2022-09-02T09:45:28;7.25;;;4.07;;
64061;SDS011;50308;47.438;-1.528;2022-09-02T09:48:16;6.53;;;3.75;;
64061;SDS011;50308;47.438;-1.528;2022-09-02T09:50:46;6.05;;;4.10;;
64061;SDS011;50308;47.438;-1.528;2022-09-02T09:53:33;4.95;;;3.95;;
64061;SDS011;50308;47.438;-1.528;2022-09-02T09:56:04;5.70;;;4.15;;
64061;SDS011;50308;47.438;-1.528;2022-09-02T09:58:41;4.85;;;3.58;;
64061;SDS011;50308;47.438;-1.528;2022-09-02T10:01:12;7.55;;;3.80;;
64061;SDS011;50308;47.438;-1.528;2022-09-02T10:03:56;5.93;;;3.40;;
64061;SDS011;50308;47.438;-1.528;2022-09-02T10:08:58;5.95;;;3.60;;
64061;SDS011;50308;47.438;-1.528;2022-09-02T10:11:33;4.13;;;3.72;;
64061;SDS011;50308;47.438;-1.528;2022-09-02T10:14:05;4.40;;;3.42;;
64061;SDS011;50308;47.438;-1.528;2022-09-02T10:21:49;5.18;;;3.30;;
64061;SDS011;50308;47.438;-1.528;2022-09-02T10:27:06;5.75;;;3.67;;
64061;SDS011;50308;47.438;-1.528;2022-09-02T10:40:25;4.88;;;2.67;;
64061;SDS011;50308;47.438;-1.528;2022-09-02T10:43:06;3.42;;;2.65;;
64061;SDS011;50308;47.438;-1.528;2022-09-02T10:45:35;4.82;;;2.70;;
64061;SDS011;50308;47.438;-1.528;2022-09-02T10:54:01;4.82;;;2.55;;
64061;SDS011;50308;47.438;-1.528;2022-09-02T10:56:52;5.20;;;2.33;;
64061;SDS011;50308;47.438;-1.528;2022-09-02T10:59:53;4.15;;;2.72;;
64061;SDS011;50308;47.438;-1.528;2022-09-02T11:02:50;2.50;;;2.28;;
64061;SDS011;50308;47.438;-1.528;2022-09-02T11:05:26;4.03;;;2.60;;
64061;SDS011;50308;47.438;-1.528;2022-09-02T11:08:02;3.50;;;2.27;;
64061;SDS011;50308;47.438;-1.528;2022-09-02T11:10:35;5.30;;;2.53;;
64061;SDS011;50308;47.438;-1.528;2022-09-02T11:13:15;3.65;;;2.38;;
64061;SDS011;50308;47.438;-1.528;2022-09-02T11:16:08;3.90;;;2.22;;
64061;SDS011;50308;47.438;-1.528;2022-09-02T11:24:25;2.85;;;2.30;;
64061;SDS011;50308;47.438;-1.528;2022-09-02T11:27:10;3.22;;;2.47;;
64061;SDS011;50308;47.438;-1.528;2022-09-02T11:30:01;5.32;;;2.85;;
64061;SDS011;50308;47.438;-1.528;2022-09-02T11:35:52;4.20;;;2.97;;
64061;SDS011;50308;47.438;-1.528;2022-09-02T11:41:24;9.73;;;3.85;;
64061;SDS011;50308;47.438;-1.528;2022-09-02T11:52:19;9.13;;;3.75;;
64061;SDS011;50308;47.438;-1.528;2022-09-02T11:55:35;5.18;;;3.03;;
64061;SDS011;50308;47.438;-1.528;2022-09-02T11:57:50;5.78;;;3.90;;
64061;SDS011;50308;47.438;-1.528;2022-09-02T12:11:06;4.43;;;3.30;;
64061;SDS011;50308;47.438;-1.528;2022-09-02T12:13:39;5.13;;;3.38;;
64061;SDS011;50308;47.438;-1.528;2022-09-02T12:21:18;4.85;;;3.30;;
64061;SDS011;50308;47.438;-1.528;2022-09-02T12:26:16;5.72;;;2.78;;
64061;SDS011;50308;47.438;-1.528;2022-09-02T12:31:35;4.93;;;3.22;;
64061;SDS011;50308;47.438;-1.528;2022-09-02T12:36:50;3.67;;;2.83;;
64061;SDS011;50308;47.438;-1.528;2022-09-02T12:44:21;4.03;;;3.22;;
64061;SDS011;50308;47.438;-1.528;2022-09-02T12:46:57;4.22;;;2.63;;
64061;SDS011;50308;47.438;-1.528;2022-09-02T12:49:47;2.45;;;2.10;;
64061;SDS011;50308;47.438;-1.528;2022-09-02T12:55:09;3.78;;;2.42;;
64061;SDS011;50308;47.438;-1.528;2022-09-02T12:57:44;3.17;;;1.80;;
64061;SDS011;50308;47.438;-1.528;2022-09-02T13:00:13;2.75;;;2.20;;
64061;SDS011;50308;47.438;-1.528;2022-09-02T13:02:43;2.80;;;2.22;;
64061;SDS011;50308;47.438;-1.528;2022-09-02T13:08:01;2.78;;;1.90;;
64061;SDS011;50308;47.438;-1.528;2022-09-02T13:11:04;2.38;;;1.85;;
64061;SDS011;50308;47.438;-1.528;2022-09-02T13:16:38;3.95;;;1.83;;
64061;SDS011;50308;47.438;-1.528;2022-09-02T13:27:50;3.28;;;1.25;;
64061;SDS011;50308;47.438;-1.528;2022-09-02T13:33:31;2.60;;;1.75;;
64061;SDS011;50308;47.438;-1.528;2022-09-02T13:35:57;3.33;;;1.50;;
64061;SDS011;50308;47.438;-1.528;2022-09-02T13:38:24;3.28;;;1.70;;
64061;SDS011;50308;47.438;-1.528;2022-09-02T13:40:51;2.97;;;1.77;;
64061;SDS011;50308;47.438;-1.528;2022-09-02T13:43:18;3.00;;;1.70;;
64061;SDS011;50308;47.438;-1.528;2022-09-02T13:45:51;3.05;;;1.67;;
64061;SDS011;50308;47.438;-1.528;2022-09-02T13:50:54;2.63;;;1.83;;
64061;SDS011;50308;47.438;-1.528;2022-09-02T13:55:55;3.75;;;2.13;;
64061;SDS011;50308;47.438;-1.528;2022-09-02T14:00:56;2.78;;;1.90;;
64061;SDS011;50308;47.438;-1.528;2022-09-02T14:03:44;2.20;;;1.60;;
64061;SDS011;50308;47.438;-1.528;2022-09-02T14:06:16;5.50;;;1.73;;
64061;SDS011;50308;47.438;-1.528;2022-09-02T14:08:44;3.78;;;2.22;;
64061;SDS011;50308;47.438;-1.528;2022-09-02T14:11:15;3.42;;;1.77;;
64061;SDS011;50308;47.438;-1.528;2022-09-02T14:13:43;3.85;;;1.98;;
64061;SDS011;50308;47.438;-1.528;2022-09-02T14:24:21;3.05;;;1.90;;
64061;SDS011;50308;47.438;-1.528;2022-09-02T14:26:49;4.15;;;2.63;;
64061;SDS011;50308;47.438;-1.528;2022-09-02T14:32:13;5.35;;;2.45;;
64061;SDS011;50308;47.438;-1.528;2022-09-02T14:34:46;5.43;;;2.47;;
64061;SDS011;50308;47.438;-1.528;2022-09-02T14:37:33;4.30;;;2.30;;
64061;SDS011;50308;47.438;-1.528;2022-09-02T14:42:24;3.88;;;2.55;;
64061;SDS011;50308;47.438;-1.528;2022-09-02T14:44:51;3.53;;;2.28;;
64061;SDS011;50308;47.438;-1.528;2022-09-02T14:47:17;4.70;;;2.08;;
64061;SDS011;50308;47.438;-1.528;2022-09-02T14:49:50;5.75;;;2.38;;
64061;SDS011;50308;47.438;-1.528;2022-09-02T14:52:19;3.58;;;2.20;;
64061;SDS011;50308;47.438;-1.528;2022-09-02T14:54:51;5.82;;;2.33;;
64061;SDS011;50308;47.438;-1.528;2022-09-02T15:00:16;3.75;;;2.17;;
64061;SDS011;50308;47.438;-1.528;2022-09-02T15:02:44;4.45;;;2.38;;
64061;SDS011;50308;47.438;-1.528;2022-09-02T15:05:13;6.90;;;2.58;;
64061;SDS011;50308;47.438;-1.528;2022-09-02T15:07:39;5.88;;;2.53;;
64061;SDS011;50308;47.438;-1.528;2022-09-02T15:10:05;4.32;;;2.70;;
64061;SDS011;50308;47.438;-1.528;2022-09-02T15:12:39;4.95;;;2.17;;
64061;SDS011;50308;47.438;-1.528;2022-09-02T15:15:14;4.88;;;2.92;;
64061;SDS011;50308;47.438;-1.528;2022-09-02T15:17:40;5.35;;;3.20;;
64061;SDS011;50308;47.438;-1.528;2022-09-02T15:20:06;4.00;;;2.70;;
64061;SDS011;50308;47.438;-1.528;2022-09-02T15:22:33;5.05;;;2.70;;
64061;SDS011;50308;47.438;-1.528;2022-09-02T15:24:59;7.97;;;3.72;;
64061;SDS011;50308;47.438;-1.528;2022-09-02T15:27:24;6.22;;;3.53;;
64061;SDS011;50308;47.438;-1.528;2022-09-02T15:29:50;4.72;;;3.60;;
64061;SDS011;50308;47.438;-1.528;2022-09-02T15:32:17;6.05;;;3.33;;
64061;SDS011;50308;47.438;-1.528;2022-09-02T15:34:42;4.60;;;2.70;;
64061;SDS011;50308;47.438;-1.528;2022-09-02T15:37:08;6.82;;;3.25;;
64061;SDS011;50308;47.438;-1.528;2022-09-02T15:39:34;3.78;;;2.78;;
64061;SDS011;50308;47.438;-1.528;2022-09-02T15:42:00;4.63;;;3.20;;
64061;SDS011;50308;47.438;-1.528;2022-09-02T15:44:26;4.63;;;2.83;;
64061;SDS011;50308;47.438;-1.528;2022-09-02T15:46:53;5.65;;;2.78;;
64061;SDS011;50308;47.438;-1.528;2022-09-02T15:49:19;4.15;;;2.40;;
64061;SDS011;50308;47.438;-1.528;2022-09-02T15:51:46;4.63;;;2.88;;
64061;SDS011;50308;47.438;-1.528;2022-09-02T15:54:15;3.90;;;2.72;;
64061;SDS011;50308;47.438;-1.528;2022-09-02T15:56:43;6.80;;;2.88;;
64061;SDS011;50308;47.438;-1.528;2022-09-02T16:01:38;5.63;;;2.53;;
64061;SDS011;50308;47.438;-1.528;2022-09-02T16:04:06;5.50;;;2.30;;
64061;SDS011;50308;47.438;-1.528;2022-09-02T16:06:33;4.15;;;2.50;;
64061;SDS011;50308;47.438;-1.528;2022-09-02T16:09:01;5.40;;;2.80;;
64061;SDS011;50308;47.438;-1.528;2022-09-02T16:11:27;4.55;;;2.38;;
64061;SDS011;50308;47.438;-1.528;2022-09-02T16:13:53;4.22;;;2.20;;
64061;SDS011;50308;47.438;-1.528;2022-09-02T16:16:19;5.10;;;2.50;;
64061;SDS011;50308;47.438;-1.528;2022-09-02T16:18:48;5.05;;;2.22;;
64061;SDS011;50308;47.438;-1.528;2022-09-02T16:21:15;3.95;;;3.05;;
64061;SDS011;50308;47.438;-1.528;2022-09-02T16:23:41;3.15;;;2.20;;
64061;SDS011;50308;47.438;-1.528;2022-09-02T16:26:12;3.08;;;2.35;;
64061;SDS011;50308;47.438;-1.528;2022-09-02T16:28:41;4.72;;;2.70;;
64061;SDS011;50308;47.438;-1.528;2022-09-02T16:31:09;8.30;;;2.72;;
64061;SDS011;50308;47.438;-1.528;2022-09-02T16:33:41;8.98;;;2.72;;
64061;SDS011;50308;47.438;-1.528;2022-09-02T16:36:08;7.05;;;2.65;;
64061;SDS011;50308;47.438;-1.528;2022-09-02T16:38:35;4.32;;;2.72;;
64061;SDS011;50308;47.438;-1.528;2022-09-02T16:41:02;4.72;;;2.30;;
64061;SDS011;50308;47.438;-1.528;2022-09-02T16:43:31;3.80;;;2.50;;
64061;SDS011;50308;47.438;-1.528;2022-09-02T16:45:58;3.15;;;1.98;;
64061;SDS011;50308;47.438;-1.528;2022-09-02T16:48:28;6.78;;;4.25;;
64061;SDS011;50308;47.438;-1.528;2022-09-02T16:51:00;4.93;;;2.72;;
64061;SDS011;50308;47.438;-1.528;2022-09-02T16:53:28;4.13;;;2.83;;
64061;SDS011;50308;47.438;-1.528;2022-09-02T16:55:55;5.63;;;2.47;;
64061;SDS011;50308;47.438;-1.528;2022-09-02T16:58:21;2.53;;;2.05;;
64061;SDS011;50308;47.438;-1.528;2022-09-02T17:00:48;4.05;;;2.40;;
64061;SDS011;50308;47.438;-1.528;2022-09-02T17:03:14;3.20;;;2.30;;
64061;SDS011;50308;47.438;-1.528;2022-09-02T17:05:40;3.40;;;2.70;;
64061;SDS011;50308;47.438;-1.528;2022-09-02T17:08:06;12.07;;;7.78;;
64061;SDS011;50308;47.438;-1.528;2022-09-02T17:10:33;8.52;;;5.15;;
64061;SDS011;50308;47.438;-1.528;2022-09-02T17:12:59;7.55;;;4.00;;
64061;SDS011;50308;47.438;-1.528;2022-09-02T17:15:26;2.88;;;2.58;;
64061;SDS011;50308;47.438;-1.528;2022-09-02T17:17:52;4.13;;;2.60;;
64061;SDS011;50308;47.438;-1.528;2022-09-02T17:20:19;6.15;;;2.97;;
64061;SDS011;50308;47.438;-1.528;2022-09-02T17:22:45;6.07;;;2.97;;
64061;SDS011;50308;47.438;-1.528;2022-09-02T17:25:11;4.13;;;2.50;;
64061;SDS011;50308;47.438;-1.528;2022-09-02T17:27:37;5.22;;;2.35;;
64061;SDS011;50308;47.438;-1.528;2022-09-02T17:30:04;5.05;;;2.95;;
64061;SDS011;50308;47.438;-1.528;2022-09-02T17:32:31;3.92;;;2.60;;
64061;SDS011;50308;47.438;-1.528;2022-09-02T17:34:57;3.00;;;1.90;;
64061;SDS011;50308;47.438;-1.528;2022-09-02T17:37:23;3.67;;;2.58;;
64061;SDS011;50308;47.438;-1.528;2022-09-02T17:39:50;4.68;;;2.80;;